createdAt,value
2017-05-05T00:00:26.714Z,0
2017-05-05T00:01:27.731Z,0
2017-05-05T00:02:28.503Z,0
2017-05-05T00:03:29.271Z,0
2017-05-05T00:04:30.039Z,0
2017-05-05T00:05:30.806Z,0
2017-05-05T00:06:31.824Z,0
2017-05-05T00:07:32.591Z,0
2017-05-05T00:08:33.362Z,0
2017-05-05T00:09:34.127Z,0
2017-05-05T00:10:34.894Z,0
2017-05-05T00:11:36.099Z,0
2017-05-05T00:12:36.871Z,0
2017-05-05T00:13:37.636Z,0
2017-05-05T00:14:38.403Z,0
2017-05-05T00:15:39.169Z,0
2017-05-05T00:16:40.187Z,0
2017-05-05T00:17:40.954Z,0
2017-05-05T00:18:41.745Z,0
2017-05-05T00:19:42.487Z,0
2017-05-05T00:20:43.256Z,0
2017-05-05T00:21:44.274Z,0
2017-05-05T00:22:45.044Z,0
2017-05-05T00:23:45.810Z,0
2017-05-05T00:24:46.580Z,0
2017-05-05T00:25:47.354Z,0
2017-05-05T00:26:48.367Z,0
2017-05-05T00:27:49.135Z,0
2017-05-05T00:28:49.904Z,0
2017-05-05T00:29:50.671Z,0
2017-05-05T00:30:51.439Z,0
2017-05-05T00:31:52.508Z,0
2017-05-05T00:32:53.277Z,0
2017-05-05T00:33:54.047Z,0
2017-05-05T00:34:54.821Z,0
2017-05-05T00:35:55.589Z,0
2017-05-05T00:36:56.658Z,0
2017-05-05T00:37:57.430Z,0
2017-05-05T00:38:58.202Z,0
2017-05-05T00:39:58.971Z,0
2017-05-05T00:40:59.741Z,0
2017-05-05T00:42:00.761Z,0
2017-05-05T00:43:01.534Z,0
2017-05-05T00:44:02.296Z,0
2017-05-05T00:45:03.064Z,0
2017-05-05T00:46:03.835Z,0
2017-05-05T00:47:04.856Z,0
2017-05-05T00:48:05.625Z,0
2017-05-05T00:49:06.394Z,0
2017-05-05T00:50:07.165Z,0
2017-05-05T00:51:07.935Z,0
2017-05-05T00:52:08.959Z,0
2017-05-05T00:53:09.729Z,0
2017-05-05T00:54:10.497Z,0
2017-05-05T00:55:11.268Z,0
2017-05-05T00:56:12.035Z,0
2017-05-05T00:57:13.103Z,0
2017-05-05T00:58:13.878Z,0
2017-05-05T00:59:14.646Z,0
2017-05-05T01:00:15.415Z,0
2017-05-05T01:01:16.370Z,0
2017-05-05T01:02:17.392Z,0
2017-05-05T01:03:18.161Z,0
2017-05-05T01:04:18.932Z,0
2017-05-05T01:05:19.697Z,0
2017-05-05T01:06:20.473Z,0
2017-05-05T01:07:21.491Z,0
2017-05-05T01:08:22.262Z,0
2017-05-05T01:09:23.030Z,0
2017-05-05T01:10:23.800Z,0
2017-05-05T01:11:24.574Z,0
2017-05-05T01:12:25.595Z,0
2017-05-05T01:13:26.367Z,0
2017-05-05T01:14:27.138Z,0
2017-05-05T01:15:27.906Z,0
2017-05-05T01:16:28.672Z,0
2017-05-05T01:17:29.692Z,0
2017-05-05T01:18:30.463Z,0
2017-05-05T01:19:31.236Z,0
2017-05-05T01:20:32.004Z,0
2017-05-05T01:21:32.775Z,0
2017-05-05T01:22:33.794Z,0
2017-05-05T01:23:34.587Z,0
2017-05-05T01:24:35.336Z,0
2017-05-05T01:25:36.107Z,0
2017-05-05T01:26:36.874Z,0
2017-05-05T01:27:37.893Z,0
2017-05-05T01:28:38.662Z,0
2017-05-05T01:29:39.432Z,0
2017-05-05T01:30:40.206Z,0
2017-05-05T01:31:40.975Z,0
2017-05-05T01:32:41.994Z,0
2017-05-05T01:33:42.952Z,0
2017-05-05T01:34:43.909Z,0
2017-05-05T01:35:44.682Z,0
2017-05-05T01:36:45.451Z,0
2017-05-05T01:37:46.470Z,0
2017-05-05T01:38:47.239Z,0
2017-05-05T01:39:48.008Z,0
2017-05-05T01:40:48.780Z,0
2017-05-05T01:41:49.562Z,0
2017-05-05T01:42:50.578Z,0
2017-05-05T01:43:51.343Z,0
2017-05-05T01:44:52.114Z,0
2017-05-05T01:45:52.882Z,0
2017-05-05T01:46:53.650Z,0
2017-05-05T01:47:54.671Z,0
2017-05-05T01:48:55.443Z,0
2017-05-05T01:49:56.212Z,0
2017-05-05T01:50:56.984Z,0
2017-05-05T01:51:57.756Z,0
2017-05-05T01:52:58.776Z,0
2017-05-05T01:53:59.546Z,0
2017-05-05T01:55:00.314Z,0
2017-05-05T01:56:01.083Z,0
2017-05-05T01:57:01.852Z,0
2017-05-05T01:58:02.873Z,0
2017-05-05T01:59:03.641Z,0
2017-05-05T02:00:04.409Z,0
2017-05-05T02:01:05.181Z,0
2017-05-05T02:02:05.949Z,0
2017-05-05T02:03:07.034Z,0
2017-05-05T02:04:07.792Z,0
2017-05-05T02:05:08.561Z,0
2017-05-05T02:06:09.331Z,0
2017-05-05T02:07:10.099Z,0
2017-05-05T02:08:11.120Z,0
2017-05-05T02:09:11.888Z,0
2017-05-05T02:10:12.852Z,0
2017-05-05T02:11:13.612Z,0
2017-05-05T02:12:14.384Z,0
2017-05-05T02:13:15.404Z,0
2017-05-05T02:14:16.175Z,0
2017-05-05T02:15:16.948Z,0
2017-05-05T02:16:17.718Z,0
2017-05-05T02:17:18.483Z,0
2017-05-05T02:18:19.504Z,0
2017-05-05T02:19:20.274Z,0
2017-05-05T02:20:21.041Z,0
2017-05-05T02:21:21.810Z,0
2017-05-05T02:22:22.579Z,0
2017-05-05T02:23:23.599Z,0
2017-05-05T02:24:24.369Z,0
2017-05-05T02:25:25.140Z,0
2017-05-05T02:26:25.910Z,0
2017-05-05T02:27:26.682Z,0
2017-05-05T02:28:27.701Z,0
2017-05-05T02:29:28.473Z,0
2017-05-05T02:30:29.249Z,0
2017-05-05T02:31:30.012Z,0
2017-05-05T02:32:30.780Z,0
2017-05-05T02:33:32.042Z,0
2017-05-05T02:34:32.813Z,0
2017-05-05T02:35:33.581Z,0
2017-05-05T02:36:34.351Z,0
2017-05-05T02:37:35.119Z,0
2017-05-05T02:38:36.137Z,0
2017-05-05T02:39:36.906Z,0
2017-05-05T02:40:37.675Z,0
2017-05-05T02:41:38.443Z,0
2017-05-05T02:42:39.211Z,0
2017-05-05T02:43:40.230Z,0
2017-05-05T02:44:41.001Z,0
2017-05-05T02:45:41.770Z,0
2017-05-05T02:46:42.541Z,0
2017-05-05T02:47:43.312Z,0
2017-05-05T02:48:44.343Z,0
2017-05-05T02:49:45.105Z,0
2017-05-05T02:50:45.877Z,0
2017-05-05T02:51:46.647Z,0
2017-05-05T02:52:47.416Z,0
2017-05-05T02:53:48.483Z,0
2017-05-05T02:54:49.256Z,0
2017-05-05T02:55:50.024Z,0
2017-05-05T02:56:50.792Z,0
2017-05-05T02:57:51.564Z,0
2017-05-05T02:58:52.584Z,0
2017-05-05T02:59:53.355Z,0
2017-05-05T03:00:54.123Z,0
2017-05-05T03:01:54.891Z,0
2017-05-05T03:02:55.672Z,0
2017-05-05T03:03:56.693Z,0
2017-05-05T03:04:57.463Z,0
2017-05-05T03:05:58.238Z,0
2017-05-05T03:06:59.001Z,0
2017-05-05T03:07:59.768Z,0
2017-05-05T03:09:00.791Z,0
2017-05-05T03:10:01.561Z,0
2017-05-05T03:11:02.333Z,0
2017-05-05T03:12:03.102Z,0
2017-05-05T03:13:03.873Z,0
2017-05-05T03:14:04.892Z,0
2017-05-05T03:15:05.662Z,0
2017-05-05T03:16:06.429Z,0
2017-05-05T03:17:07.390Z,0
2017-05-05T03:18:08.160Z,0
2017-05-05T03:19:09.180Z,0
2017-05-05T03:20:09.951Z,0
2017-05-05T03:21:10.720Z,0
2017-05-05T03:22:11.490Z,0
2017-05-05T03:23:12.261Z,0
2017-05-05T03:24:13.285Z,0
2017-05-05T03:25:14.060Z,0
2017-05-05T03:26:14.823Z,0
2017-05-05T03:27:15.595Z,0
2017-05-05T03:28:16.363Z,0
2017-05-05T03:29:17.379Z,0
2017-05-05T03:30:18.149Z,4
2017-05-05T03:31:18.917Z,4
2017-05-05T03:32:19.686Z,4
2017-05-05T03:33:20.458Z,0
2017-05-05T03:34:21.475Z,4
2017-05-05T03:35:22.246Z,4
2017-05-05T03:36:23.016Z,4
2017-05-05T03:37:23.786Z,4
2017-05-05T03:38:24.557Z,8
2017-05-05T03:39:25.624Z,8
2017-05-05T03:40:26.394Z,8
2017-05-05T03:41:27.167Z,12
2017-05-05T03:42:27.939Z,16
2017-05-05T03:43:28.709Z,16
2017-05-05T03:44:29.734Z,20
2017-05-05T03:45:30.504Z,16
2017-05-05T03:46:31.276Z,16
2017-05-05T03:47:32.048Z,20
2017-05-05T03:48:32.820Z,20
2017-05-05T03:49:33.842Z,20
2017-05-05T03:50:34.615Z,24
2017-05-05T03:51:35.386Z,24
2017-05-05T03:52:36.155Z,28
2017-05-05T03:53:36.923Z,32
2017-05-05T03:54:37.997Z,28
2017-05-05T03:55:38.762Z,36
2017-05-05T03:56:39.530Z,44
2017-05-05T03:57:40.300Z,40
2017-05-05T03:58:41.068Z,40
2017-05-05T03:59:42.137Z,44
2017-05-05T04:00:42.909Z,52
2017-05-05T04:01:43.680Z,60
2017-05-05T04:02:44.451Z,72
2017-05-05T04:03:45.221Z,76
2017-05-05T04:04:46.290Z,76
2017-05-05T04:05:47.058Z,84
2017-05-05T04:06:47.827Z,92
2017-05-05T04:07:48.604Z,96
2017-05-05T04:08:49.370Z,100
2017-05-05T04:09:50.392Z,116
2017-05-05T04:10:51.163Z,104
2017-05-05T04:11:51.937Z,92
2017-05-05T04:12:52.707Z,88
2017-05-05T04:13:53.480Z,88
2017-05-05T04:14:54.504Z,92
2017-05-05T04:15:55.278Z,104
2017-05-05T04:16:56.048Z,104
2017-05-05T04:17:56.820Z,120
2017-05-05T04:18:57.594Z,128
2017-05-05T04:19:58.619Z,136
2017-05-05T04:20:59.393Z,132
2017-05-05T04:22:00.164Z,152
2017-05-05T04:23:00.935Z,168
2017-05-05T04:24:01.709Z,168
2017-05-05T04:25:02.729Z,176
2017-05-05T04:26:03.498Z,200
2017-05-05T04:27:04.268Z,212
2017-05-05T04:28:05.039Z,196
2017-05-05T04:29:05.809Z,228
2017-05-05T04:30:06.831Z,224
2017-05-05T04:31:07.600Z,252
2017-05-05T04:32:08.370Z,256
2017-05-05T04:33:09.145Z,216
2017-05-05T04:34:09.913Z,236
2017-05-05T04:35:10.984Z,244
2017-05-05T04:36:11.759Z,260
2017-05-05T04:37:12.532Z,240
2017-05-05T04:38:13.303Z,256
2017-05-05T04:39:14.079Z,252
2017-05-05T04:40:15.098Z,308
2017-05-05T04:41:15.870Z,296
2017-05-05T04:42:16.641Z,384
2017-05-05T04:43:17.416Z,364
2017-05-05T04:44:18.185Z,324
2017-05-05T04:45:19.208Z,360
2017-05-05T04:46:19.982Z,328
2017-05-05T04:47:20.758Z,416
2017-05-05T04:48:21.530Z,352
2017-05-05T04:49:22.306Z,388
2017-05-05T04:50:23.325Z,400
2017-05-05T04:51:24.117Z,420
2017-05-05T04:52:24.900Z,412
2017-05-05T04:53:25.680Z,452
2017-05-05T04:54:26.480Z,476
2017-05-05T04:55:27.552Z,448
2017-05-05T04:56:28.322Z,400
2017-05-05T04:57:29.141Z,452
2017-05-05T04:58:29.909Z,444
2017-05-05T04:59:30.682Z,436
2017-05-05T05:00:31.706Z,448
2017-05-05T05:01:32.480Z,492
2017-05-05T05:02:33.251Z,436
2017-05-05T05:03:34.021Z,500
2017-05-05T05:04:34.793Z,476
2017-05-05T05:05:35.818Z,496
2017-05-05T05:06:36.593Z,540
2017-05-05T05:07:37.366Z,552
2017-05-05T05:08:38.137Z,588
2017-05-05T05:09:38.908Z,596
2017-05-05T05:10:39.928Z,568
2017-05-05T05:11:40.697Z,660
2017-05-05T05:12:41.471Z,576
2017-05-05T05:13:42.244Z,644
2017-05-05T05:14:43.018Z,644
2017-05-05T05:15:44.039Z,716
2017-05-05T05:16:44.813Z,708
2017-05-05T05:17:45.584Z,744
2017-05-05T05:18:46.358Z,708
2017-05-05T05:19:47.133Z,728
2017-05-05T05:20:48.155Z,716
2017-05-05T05:21:48.929Z,800
2017-05-05T05:22:49.703Z,792
2017-05-05T05:23:50.484Z,720
2017-05-05T05:24:51.250Z,824
2017-05-05T05:25:52.272Z,764
2017-05-05T05:26:53.073Z,800
2017-05-05T05:27:53.865Z,860
2017-05-05T05:28:54.641Z,880
2017-05-05T05:29:55.413Z,824
2017-05-05T05:30:56.439Z,880
2017-05-05T05:31:57.214Z,820
2017-05-05T05:32:57.997Z,788
2017-05-05T05:33:58.773Z,828
2017-05-05T05:34:59.546Z,836
2017-05-05T05:36:00.567Z,912
2017-05-05T05:37:01.342Z,784
2017-05-05T05:38:02.112Z,812
2017-05-05T05:39:02.886Z,916
2017-05-05T05:40:03.656Z,996
2017-05-05T05:41:04.679Z,924
2017-05-05T05:42:05.456Z,848
2017-05-05T05:43:06.229Z,904
2017-05-05T05:44:07.000Z,956
2017-05-05T05:45:07.772Z,980
2017-05-05T05:46:08.795Z,896
2017-05-05T05:47:09.571Z,876
2017-05-05T05:48:10.342Z,924
2017-05-05T05:49:11.116Z,1024
2017-05-05T05:50:11.892Z,1100
2017-05-05T05:51:12.926Z,1048
2017-05-05T05:52:13.694Z,1008
2017-05-05T05:53:14.468Z,1060
2017-05-05T05:54:15.251Z,1048
2017-05-05T05:55:16.018Z,1048
2017-05-05T05:56:17.043Z,1048
2017-05-05T05:57:17.819Z,1076
2017-05-05T05:58:18.595Z,1112
2017-05-05T05:59:19.365Z,1188
2017-05-05T06:00:20.140Z,1356
2017-05-05T06:01:21.163Z,1368
2017-05-05T06:02:21.936Z,1364
2017-05-05T06:03:22.711Z,1384
2017-05-05T06:04:23.487Z,1464
2017-05-05T06:05:24.265Z,1472
2017-05-05T06:06:25.337Z,1452
2017-05-05T06:07:26.111Z,1432
2017-05-05T06:08:26.886Z,1424
2017-05-05T06:09:27.662Z,1420
2017-05-05T06:10:28.437Z,1472
2017-05-05T06:11:29.462Z,1620
2017-05-05T06:12:30.236Z,1588
2017-05-05T06:13:31.010Z,1568
2017-05-05T06:14:31.790Z,1536
2017-05-05T06:15:32.558Z,1552
2017-05-05T06:16:33.582Z,1604
2017-05-05T06:17:34.357Z,1536
2017-05-05T06:18:35.130Z,1476
2017-05-05T06:19:35.906Z,1456
2017-05-05T06:20:36.680Z,1528
2017-05-05T06:21:37.705Z,1532
2017-05-05T06:22:38.483Z,1596
2017-05-05T06:23:39.257Z,1552
2017-05-05T06:24:40.035Z,1720
2017-05-05T06:25:40.809Z,1684
2017-05-05T06:26:41.831Z,1748
2017-05-05T06:27:42.603Z,1732
2017-05-05T06:28:43.378Z,1708
2017-05-05T06:29:44.152Z,1664
2017-05-05T06:30:44.928Z,1676
2017-05-05T06:31:45.953Z,1496
2017-05-05T06:32:46.725Z,1440
2017-05-05T06:33:47.499Z,1464
2017-05-05T06:34:48.277Z,1520
2017-05-05T06:35:49.054Z,1560
2017-05-05T06:36:50.077Z,1636
2017-05-05T06:37:50.854Z,1716
2017-05-05T06:38:51.626Z,1656
2017-05-05T06:39:52.402Z,1616
2017-05-05T06:40:53.174Z,1636
2017-05-05T06:41:54.200Z,1772
2017-05-05T06:42:54.975Z,1684
2017-05-05T06:43:55.752Z,1584
2017-05-05T06:44:56.527Z,1612
2017-05-05T06:45:57.301Z,1724
2017-05-05T06:46:58.324Z,1632
2017-05-05T06:47:59.098Z,1592
2017-05-05T06:48:59.870Z,1548
2017-05-05T06:50:00.643Z,1532
2017-05-05T06:51:01.414Z,1576
2017-05-05T06:52:02.490Z,1792
2017-05-05T06:53:03.268Z,1964
2017-05-05T06:54:04.039Z,1956
2017-05-05T06:55:04.816Z,2000
2017-05-05T06:56:05.591Z,2172
2017-05-05T06:57:06.616Z,2260
2017-05-05T06:58:07.389Z,2364
2017-05-05T06:59:08.165Z,2388
2017-05-05T07:00:08.945Z,2596
2017-05-05T07:01:09.716Z,2552
2017-05-05T07:02:10.789Z,2632
2017-05-05T07:03:11.564Z,2600
2017-05-05T07:04:12.338Z,2864
2017-05-05T07:05:13.116Z,2888
2017-05-05T07:06:13.893Z,2820
2017-05-05T07:07:14.918Z,2968
2017-05-05T07:08:15.695Z,3104
2017-05-05T07:09:16.468Z,2688
2017-05-05T07:10:17.243Z,2320
2017-05-05T07:11:18.017Z,2276
2017-05-05T07:12:19.039Z,2160
2017-05-05T07:13:19.815Z,2056
2017-05-05T07:14:20.589Z,1944
2017-05-05T07:15:21.364Z,2032
2017-05-05T07:16:22.137Z,1964
2017-05-05T07:17:23.160Z,2040
2017-05-05T07:18:23.934Z,1964
2017-05-05T07:19:24.710Z,2132
2017-05-05T07:20:25.486Z,2156
2017-05-05T07:21:26.262Z,2476
2017-05-05T07:22:27.285Z,2884
2017-05-05T07:23:28.060Z,3080
2017-05-05T07:24:28.834Z,2684
2017-05-05T07:25:29.609Z,2960
2017-05-05T07:26:30.389Z,3164
2017-05-05T07:27:31.411Z,2836
2017-05-05T07:28:32.187Z,2796
2017-05-05T07:29:32.960Z,2596
2017-05-05T07:30:33.736Z,2396
2017-05-05T07:31:34.512Z,2136
2017-05-05T07:32:35.535Z,2000
2017-05-05T07:33:36.313Z,2100
2017-05-05T07:34:37.089Z,2100
2017-05-05T07:35:37.862Z,2560
2017-05-05T07:36:38.637Z,2988
2017-05-05T07:37:39.664Z,3228
2017-05-05T07:38:40.438Z,3896
2017-05-05T07:39:41.215Z,3912
2017-05-05T07:40:41.989Z,3672
2017-05-05T07:41:42.766Z,3724
2017-05-05T07:42:43.795Z,4024
2017-05-05T07:43:44.568Z,3960
2017-05-05T07:44:45.345Z,4064
2017-05-05T07:45:46.313Z,3744
2017-05-05T07:46:47.088Z,3772
2017-05-05T07:47:48.117Z,3544
2017-05-05T07:48:48.890Z,3356
2017-05-05T07:49:49.666Z,3324
2017-05-05T07:50:50.443Z,3604
2017-05-05T07:51:51.217Z,3732
2017-05-05T07:52:52.243Z,3580
2017-05-05T07:53:53.021Z,3332
2017-05-05T07:54:53.800Z,3080
2017-05-05T07:55:54.576Z,2888
2017-05-05T07:56:55.350Z,2904
2017-05-05T07:57:56.428Z,3024
2017-05-05T07:58:57.207Z,3348
2017-05-05T07:59:57.986Z,3356
2017-05-05T08:00:58.759Z,3420
2017-05-05T08:01:59.534Z,3632
2017-05-05T08:03:00.559Z,3536
2017-05-05T08:04:01.335Z,3400
2017-05-05T08:05:02.110Z,3504
2017-05-05T08:06:02.885Z,3620
2017-05-05T08:07:03.666Z,3720
2017-05-05T08:08:04.690Z,3816
2017-05-05T08:09:05.466Z,3972
2017-05-05T08:10:06.240Z,4216
2017-05-05T08:11:07.018Z,4400
2017-05-05T08:12:07.794Z,4836
2017-05-05T08:13:08.819Z,5384
2017-05-05T08:14:09.598Z,5296
2017-05-05T08:15:10.373Z,5320
2017-05-05T08:16:11.152Z,5820
2017-05-05T08:17:11.927Z,6340
2017-05-05T08:18:12.954Z,6672
2017-05-05T08:19:13.736Z,6776
2017-05-05T08:20:14.512Z,6740
2017-05-05T08:21:15.290Z,6372
2017-05-05T08:22:16.068Z,5940
2017-05-05T08:23:17.100Z,5496
2017-05-05T08:24:17.877Z,5284
2017-05-05T08:25:18.655Z,5284
2017-05-05T08:26:19.435Z,5136
2017-05-05T08:27:20.210Z,4956
2017-05-05T08:28:21.236Z,4732
2017-05-05T08:29:22.012Z,4540
2017-05-05T08:30:22.794Z,4484
2017-05-05T08:31:23.571Z,4416
2017-05-05T08:32:24.357Z,4208
2017-05-05T08:33:25.437Z,4164
2017-05-05T08:34:26.215Z,4264
2017-05-05T08:35:26.993Z,4268
2017-05-05T08:36:27.771Z,4252
2017-05-05T08:37:28.554Z,4268
2017-05-05T08:38:29.580Z,4276
2017-05-05T08:39:30.356Z,4264
2017-05-05T08:40:31.135Z,4188
2017-05-05T08:41:31.915Z,4052
2017-05-05T08:42:32.691Z,3916
2017-05-05T08:43:33.718Z,4004
2017-05-05T08:44:34.681Z,4148
2017-05-05T08:45:35.460Z,4424
2017-05-05T08:46:36.422Z,4612
2017-05-05T08:47:37.200Z,4608
2017-05-05T08:48:38.229Z,4552
2017-05-05T08:49:39.007Z,4556
2017-05-05T08:50:39.785Z,4800
2017-05-05T08:51:40.562Z,5124
2017-05-05T08:52:41.342Z,5584
2017-05-05T08:53:42.369Z,6064
2017-05-05T08:54:43.147Z,6376
2017-05-05T08:55:43.929Z,6600
2017-05-05T08:56:44.709Z,6656
2017-05-05T08:57:45.488Z,6540
2017-05-05T08:58:46.516Z,6168
2017-05-05T08:59:47.294Z,5748
2017-05-05T09:00:48.076Z,5728
2017-05-05T09:01:48.853Z,5748
2017-05-05T09:02:49.633Z,5892
2017-05-05T09:03:50.661Z,6004
2017-05-05T09:04:51.439Z,6004
2017-05-05T09:05:52.219Z,6112
2017-05-05T09:06:52.998Z,6208
2017-05-05T09:07:53.776Z,6196
2017-05-05T09:08:54.809Z,6044
2017-05-05T09:09:55.591Z,5812
2017-05-05T09:10:56.372Z,5592
2017-05-05T09:11:57.154Z,5228
2017-05-05T09:12:57.931Z,5136
2017-05-05T09:13:58.959Z,5172
2017-05-05T09:14:59.743Z,4996
2017-05-05T09:16:00.517Z,4700
2017-05-05T09:17:01.480Z,4652
2017-05-05T09:18:02.257Z,4696
2017-05-05T09:19:03.284Z,4716
2017-05-05T09:20:04.061Z,4624
2017-05-05T09:21:04.839Z,4392
2017-05-05T09:22:05.617Z,4076
2017-05-05T09:23:06.396Z,3844
2017-05-05T09:24:07.423Z,3748
2017-05-05T09:25:08.202Z,3760
2017-05-05T09:26:08.982Z,3868
2017-05-05T09:27:09.763Z,3760
2017-05-05T09:28:10.540Z,3580
2017-05-05T09:29:11.572Z,3460
2017-05-05T09:30:12.351Z,3396
2017-05-05T09:31:13.129Z,3332
2017-05-05T09:32:13.908Z,3344
2017-05-05T09:33:14.686Z,3536
2017-05-05T09:34:15.716Z,3812
2017-05-05T09:35:16.496Z,4040
2017-05-05T09:36:17.278Z,4184
2017-05-05T09:37:18.054Z,4192
2017-05-05T09:38:18.832Z,4044
2017-05-05T09:39:19.862Z,3784
2017-05-05T09:40:20.643Z,3564
2017-05-05T09:41:21.420Z,3368
2017-05-05T09:42:22.200Z,3284
2017-05-05T09:43:22.981Z,3412
2017-05-05T09:44:24.006Z,3500
2017-05-05T09:45:24.783Z,3480
2017-05-05T09:46:25.582Z,3540
2017-05-05T09:47:26.341Z,3488
2017-05-05T09:48:27.121Z,3788
2017-05-05T09:49:28.150Z,3680
2017-05-05T09:50:28.928Z,3556
2017-05-05T09:51:29.706Z,3464
2017-05-05T09:52:30.483Z,3428
2017-05-05T09:53:31.267Z,3540
2017-05-05T09:54:32.340Z,3752
2017-05-05T09:55:33.117Z,3792
2017-05-05T09:56:33.897Z,3852
2017-05-05T09:57:34.677Z,4016
2017-05-05T09:58:35.457Z,3992
2017-05-05T09:59:36.533Z,4124
2017-05-05T10:00:37.317Z,4164
2017-05-05T10:01:38.087Z,4276
2017-05-05T10:02:39.057Z,4408
2017-05-05T10:03:39.830Z,4548
2017-05-05T10:04:40.859Z,4564
2017-05-05T10:05:41.635Z,4908
2017-05-05T10:06:42.409Z,5296
2017-05-05T10:07:43.189Z,5104
2017-05-05T10:08:43.967Z,4340
2017-05-05T10:09:45.048Z,3684
2017-05-05T10:10:45.827Z,3276
2017-05-05T10:11:46.607Z,3256
2017-05-05T10:12:47.384Z,3384
2017-05-05T10:13:48.164Z,3688
2017-05-05T10:14:49.189Z,4016
2017-05-05T10:15:49.964Z,4196
2017-05-05T10:16:50.740Z,4356
2017-05-05T10:17:51.514Z,4428
2017-05-05T10:18:52.292Z,4468
2017-05-05T10:19:53.320Z,4420
2017-05-05T10:20:54.130Z,4340
2017-05-05T10:21:55.833Z,4460
2017-05-05T10:22:56.613Z,4592
2017-05-05T10:23:57.391Z,4544
2017-05-05T10:24:58.418Z,4468
2017-05-05T10:25:59.197Z,4612
2017-05-05T10:26:59.976Z,4896
2017-05-05T10:28:00.754Z,5064
2017-05-05T10:29:01.530Z,5584
2017-05-05T10:30:02.558Z,6572
2017-05-05T10:31:03.345Z,7384
2017-05-05T10:32:04.312Z,7972
2017-05-05T10:33:05.284Z,8628
2017-05-05T10:34:06.056Z,8768
2017-05-05T10:35:07.082Z,9312
2017-05-05T10:36:07.859Z,8584
2017-05-05T10:37:08.637Z,9636
2017-05-05T10:38:09.418Z,10680
2017-05-05T10:39:10.197Z,10168
2017-05-05T10:40:11.412Z,9040
2017-05-05T10:41:12.190Z,7876
2017-05-05T10:42:12.972Z,7424
2017-05-05T10:43:13.756Z,7428
2017-05-05T10:44:14.533Z,7224
2017-05-05T10:45:15.611Z,7148
2017-05-05T10:46:16.395Z,6952
2017-05-05T10:47:17.168Z,6780
2017-05-05T10:48:17.949Z,6916
2017-05-05T10:49:18.727Z,6644
2017-05-05T10:50:19.759Z,6056
2017-05-05T10:51:20.542Z,5332
2017-05-05T10:52:21.314Z,4896
2017-05-05T10:53:22.095Z,4752
2017-05-05T10:54:22.872Z,4668
2017-05-05T10:55:23.952Z,4488
2017-05-05T10:56:24.733Z,4080
2017-05-05T10:57:25.513Z,3876
2017-05-05T10:58:26.290Z,3784
2017-05-05T10:59:27.071Z,3860
2017-05-05T11:00:28.151Z,4296
2017-05-05T11:01:28.930Z,5180
2017-05-05T11:02:29.709Z,6220
2017-05-05T11:03:30.486Z,7324
2017-05-05T11:04:31.263Z,8732
2017-05-05T11:05:32.291Z,10004
2017-05-05T11:06:33.075Z,11308
2017-05-05T11:07:33.850Z,12120
2017-05-05T11:08:34.635Z,12196
2017-05-05T11:09:35.410Z,11504
2017-05-05T11:10:36.441Z,10804
2017-05-05T11:11:37.221Z,10108
2017-05-05T11:12:38.006Z,9656
2017-05-05T11:13:38.788Z,9128
2017-05-05T11:14:39.565Z,8620
2017-05-05T11:15:40.597Z,7548
2017-05-05T11:16:41.376Z,6588
2017-05-05T11:17:42.157Z,5984
2017-05-05T11:18:42.938Z,5756
2017-05-05T11:19:43.720Z,5644
2017-05-05T11:20:44.749Z,5496
2017-05-05T11:21:45.528Z,5252
2017-05-05T11:22:46.308Z,5236
2017-05-05T11:23:47.089Z,5176
2017-05-05T11:24:47.867Z,5264
2017-05-05T11:25:48.896Z,5572
2017-05-05T11:26:49.678Z,5988
2017-05-05T11:27:50.455Z,6540
2017-05-05T11:28:51.235Z,6736
2017-05-05T11:29:52.015Z,6496
2017-05-05T11:30:53.097Z,6076
2017-05-05T11:31:53.875Z,5940
2017-05-05T11:32:54.655Z,6016
2017-05-05T11:33:55.435Z,6212
2017-05-05T11:34:56.214Z,6508
2017-05-05T11:35:57.242Z,6680
2017-05-05T11:36:58.025Z,7196
2017-05-05T11:37:58.804Z,8188
2017-05-05T11:38:59.582Z,9252
2017-05-05T11:40:00.361Z,9976
2017-05-05T11:41:01.391Z,10148
2017-05-05T11:42:02.176Z,10036
2017-05-05T11:43:02.953Z,9784
2017-05-05T11:44:03.731Z,9400
2017-05-05T11:45:04.514Z,9372
2017-05-05T11:46:05.755Z,9424
2017-05-05T11:47:06.536Z,9220
2017-05-05T11:48:07.319Z,8480
2017-05-05T11:49:08.102Z,7628
2017-05-05T11:50:08.879Z,6936
2017-05-05T11:51:09.909Z,6532
2017-05-05T11:52:10.688Z,6588
2017-05-05T11:53:11.470Z,6872
2017-05-05T11:54:12.251Z,7188
2017-05-05T11:55:13.029Z,7740
2017-05-05T11:56:14.111Z,8048
2017-05-05T11:57:14.892Z,7672
2017-05-05T11:58:15.670Z,8152
2017-05-05T11:59:16.451Z,9228
2017-05-05T12:00:17.230Z,9644
2017-05-05T12:01:18.261Z,9784
2017-05-05T12:02:19.038Z,9420
2017-05-05T12:03:19.825Z,8136
2017-05-05T12:04:20.600Z,7240
2017-05-05T12:05:21.384Z,7660
2017-05-05T12:06:22.415Z,7908
2017-05-05T12:07:23.194Z,8076
2017-05-05T12:08:23.973Z,8092
2017-05-05T12:09:24.755Z,8028
2017-05-05T12:10:25.533Z,8280
2017-05-05T12:11:26.563Z,8944
2017-05-05T12:12:27.341Z,9516
2017-05-05T12:13:28.125Z,10172
2017-05-05T12:14:28.906Z,10976
2017-05-05T12:15:29.688Z,11892
2017-05-05T12:16:30.954Z,13472
2017-05-05T12:17:31.737Z,14064
2017-05-05T12:18:32.521Z,14588
2017-05-05T12:19:33.299Z,14940
2017-05-05T12:20:34.080Z,14176
2017-05-05T12:21:35.109Z,13368
2017-05-05T12:22:35.892Z,12792
2017-05-05T12:23:36.672Z,12300
2017-05-05T12:24:37.452Z,11492
2017-05-05T12:25:38.234Z,10616
2017-05-05T12:26:39.267Z,10204
2017-05-05T12:27:40.044Z,9708
2017-05-05T12:28:41.017Z,8996
2017-05-05T12:29:41.792Z,8328
2017-05-05T12:30:42.574Z,8392
2017-05-05T12:31:43.607Z,9076
2017-05-05T12:32:44.388Z,9412
2017-05-05T12:33:45.171Z,9068
2017-05-05T12:34:45.955Z,8252
2017-05-05T12:35:46.734Z,7724
2017-05-05T12:36:47.767Z,7456
2017-05-05T12:37:48.548Z,6808
2017-05-05T12:38:49.332Z,6372
2017-05-05T12:39:50.111Z,6444
2017-05-05T12:40:50.893Z,6880
2017-05-05T12:41:51.926Z,6924
2017-05-05T12:42:52.704Z,6288
2017-05-05T12:43:53.486Z,5508
2017-05-05T12:44:54.265Z,4808
2017-05-05T12:45:55.230Z,4132
2017-05-05T12:46:56.260Z,3632
2017-05-05T12:47:57.226Z,3404
2017-05-05T12:48:58.004Z,3488
2017-05-05T12:49:58.783Z,3776
2017-05-05T12:50:59.565Z,4112
2017-05-05T12:52:00.594Z,4560
2017-05-05T12:53:01.373Z,4992
2017-05-05T12:54:02.153Z,5112
2017-05-05T12:55:03.116Z,5044
2017-05-05T12:56:03.898Z,4948
2017-05-05T12:57:05.166Z,4856
2017-05-05T12:58:05.945Z,4796
2017-05-05T12:59:06.729Z,4740
2017-05-05T13:00:07.511Z,4628
2017-05-05T13:01:08.291Z,4560
2017-05-05T13:02:09.371Z,4552
2017-05-05T13:03:10.151Z,4532
2017-05-05T13:04:10.934Z,4412
2017-05-05T13:05:11.712Z,4356
2017-05-05T13:06:12.494Z,4436
2017-05-05T13:07:13.528Z,4572
2017-05-05T13:08:14.311Z,4676
2017-05-05T13:09:15.094Z,4780
2017-05-05T13:10:15.873Z,4792
2017-05-05T13:11:16.652Z,4744
2017-05-05T13:12:17.687Z,4704
2017-05-05T13:13:18.463Z,4668
2017-05-05T13:14:19.245Z,4524
2017-05-05T13:15:20.025Z,4356
2017-05-05T13:16:20.823Z,4192
2017-05-05T13:17:21.903Z,4012
2017-05-05T13:18:22.873Z,3832
2017-05-05T13:19:23.653Z,3700
2017-05-05T13:20:24.434Z,3588
2017-05-05T13:21:25.216Z,3592
2017-05-05T13:22:26.247Z,3716
2017-05-05T13:23:27.028Z,3884
2017-05-05T13:24:27.811Z,3964
2017-05-05T13:25:28.588Z,4164
2017-05-05T13:26:29.368Z,4464
2017-05-05T13:27:30.398Z,4620
2017-05-05T13:28:31.180Z,4488
2017-05-05T13:29:31.959Z,4084
2017-05-05T13:30:32.738Z,3572
2017-05-05T13:31:33.519Z,3168
2017-05-05T13:32:34.546Z,3012
2017-05-05T13:33:35.328Z,3108
2017-05-05T13:34:36.109Z,3308
2017-05-05T13:35:36.891Z,3552
2017-05-05T13:36:37.668Z,3868
2017-05-05T13:37:38.695Z,4268
2017-05-05T13:38:39.476Z,4648
2017-05-05T13:39:40.255Z,4976
2017-05-05T13:40:41.037Z,5164
2017-05-05T13:41:41.814Z,5160
2017-05-05T13:42:42.842Z,5016
2017-05-05T13:43:43.624Z,4944
2017-05-05T13:44:44.403Z,4920
2017-05-05T13:45:45.184Z,4924
2017-05-05T13:46:45.965Z,4800
2017-05-05T13:47:46.999Z,4468
2017-05-05T13:48:47.775Z,4032
2017-05-05T13:49:48.555Z,3712
2017-05-05T13:50:49.335Z,3576
2017-05-05T13:51:50.117Z,3516
2017-05-05T13:52:51.148Z,3456
2017-05-05T13:53:51.925Z,3408
2017-05-05T13:54:52.707Z,3384
2017-05-05T13:55:53.486Z,3356